Terminal Aerodrome Forecast
Issued by NWS Rapid City, SD

Home | Current Version | Previous Version | Text Only | Print | Product List | Glossary Off
Versions: 1 2 3 4 5 6 7 8 9 10 11 12 13 14 15

000
FTUS43 KUNR 020418 AAA
TAFRAP
TAF AMD
KRAP 020418Z 0204/0224 02010KT P6SM BKN110
      TEMPO 0204/0207 2SM TSRA BKN050CB OVC100
     FM020800 32005KT P6SM BKN100
     FM021500 35012KT P6SM SCT080=

USA.gov is the U.S. government's official web portal to all federal, state and local government web resources and services.